Sunday, August 30, 2015, 3:50 AM EDT

KOKV, Winchester Regional

Location: Winchester, VA, United States Lat: 39.15
Local Time: 3:50 AM EDT ( 7:50 GMT) Lon: -78.15
Time Zone: US/Eastern Elev: 728 ft

Show me the last for .
Show Decoded

2015-08-30 03:35 METAR KOKV 300735Z AUTO 21004KT 10SM CLR 20/17 A3009 RMK AO2 =
2015-08-30 03:15 METAR KOKV 300715Z AUTO 20004KT 10SM CLR 20/17 A3010 RMK AO2 =
2015-08-30 02:55 METAR KOKV 300655Z AUTO 19004KT 10SM CLR 19/17 A3010 RMK AO2 =
2015-08-30 02:35 METAR KOKV 300635Z AUTO 18003KT 10SM CLR 19/17 A3010 RMK AO2 =
2015-08-30 02:15 METAR KOKV 300615Z AUTO 00000KT 10SM CLR 19/17 A3010 RMK AO2 =
2015-08-30 01:35 METAR KOKV 300535Z AUTO 00000KT 10SM SCT080 21/17 A3010 RMK AO2 =
2015-08-30 01:15 METAR KOKV 300515Z AUTO 22003KT 10SM BKN080 22/17 A3011 RMK AO2 =
2015-08-30 00:55 METAR KOKV 300455Z AUTO 21003KT 10SM SCT080 22/17 A3011 RMK AO2 =
2015-08-30 00:35 METAR KOKV 300435Z AUTO 22003KT 10SM CLR 22/17 A3011 RMK AO2 =
2015-08-30 00:15 METAR KOKV 300415Z AUTO 20003KT 10SM CLR 22/17 A3011 RMK AO2 =
2015-08-29 23:55 METAR KOKV 300355Z AUTO 22003KT 10SM CLR 23/17 A3011 RMK AO2 =
2015-08-29 23:35 METAR KOKV 300335Z AUTO 20004KT 10SM CLR 22/17 A3012 RMK AO2 =
2015-08-29 23:15 METAR KOKV 300315Z AUTO 20004KT 10SM CLR 22/17 A3011 RMK AO2 =
2015-08-29 22:55 METAR KOKV 300255Z AUTO 18003KT 10SM CLR 23/17 A3011 RMK AO2 =
2015-08-29 22:35 METAR KOKV 300235Z AUTO 19003KT 10SM CLR 23/17 A3011 RMK AO2 =
2015-08-29 22:15 METAR KOKV 300215Z AUTO 20003KT 10SM CLR 23/17 A3011 RMK AO2 =
2015-08-29 21:55 METAR KOKV 300155Z AUTO 17004KT 10SM SCT080 25/18 A3011 RMK AO2 =
2015-08-29 21:35 METAR KOKV 300135Z AUTO 18005KT 10SM BKN070 BKN090 25/17 A3011 RMK AO2 =
2015-08-29 21:15 METAR KOKV 300115Z AUTO 18006KT 10SM SCT070 25/17 A3011 RMK AO2 =
2015-08-29 20:55 METAR KOKV 300055Z AUTO 15005KT 10SM BKN070 BKN080 25/17 A3011 RMK AO2 =
2015-08-29 20:35 METAR KOKV 300035Z AUTO 15004KT 7SM SCT070 SCT080 25/17 A3010 RMK AO2 =
2015-08-29 20:15 METAR KOKV 300015Z AUTO 14005KT 10SM SCT070 SCT080 25/17 A3010 RMK AO2 =
2015-08-29 19:55 METAR KOKV 292355Z AUTO 13004KT 10SM SCT075 26/17 A3010 RMK AO2 =
2015-08-29 19:35 METAR KOKV 292335Z AUTO 12004KT 10SM SCT075 26/17 A3010 RMK AO2 =
2015-08-29 19:15 METAR KOKV 292315Z AUTO 12004KT 10SM CLR 27/17 A3010 RMK AO2 =
2015-08-29 18:55 METAR KOKV 292255Z AUTO 13005KT 10SM CLR 28/17 A3010 RMK AO2 =
2015-08-29 18:35 METAR KOKV 292235Z AUTO 14004KT 10SM CLR 28/17 A3010 RMK AO2 =
2015-08-29 18:15 METAR KOKV 292215Z AUTO 16006KT 10SM CLR 29/17 A3010 RMK AO2 =
2015-08-29 17:55 METAR KOKV 292155Z AUTO 15007KT 10SM CLR 30/17 A3011 RMK AO2 =
2015-08-29 17:35 METAR KOKV 292135Z AUTO 14004KT 10SM SCT050 30/17 A3011 RMK AO2 =
2015-08-29 17:15 METAR KOKV 292115Z AUTO 19008KT 10SM SCT050 SCT065 30/17 A3011 RMK AO2 =
2015-08-29 16:55 METAR KOKV 292055Z AUTO 18007KT 10SM SCT060 31/17 A3012 RMK AO2 =
2015-08-29 16:35 METAR KOKV 292035Z AUTO 15007KT 10SM SCT046 BKN060 BKN075 30/17 A3012 RMK AO2 =
2015-08-29 16:15 METAR KOKV 292015Z AUTO 14008KT 10SM SCT046 BKN060 BKN075 31/17 A3012 RMK AO2 =
2015-08-29 15:55 METAR KOKV 291955Z AUTO 13011G15KT 10SM SCT050 BKN060 BKN075 32/17 A3012 RMK AO2
                 =
2015-08-29 15:35 METAR KOKV 291935Z AUTO 08004KT 10SM SCT060 SCT100 32/15 A3013 RMK AO2 =
2015-08-29 15:15 METAR KOKV 291915Z AUTO 17005KT 10SM BKN060 BKN075 BKN100 32/15 A3013 RMK AO2 =
2015-08-29 14:55 METAR KOKV 291855Z AUTO 10004KT 10SM OVC060 30/15 A3014 RMK AO2 =
2015-08-29 14:35 METAR KOKV 291835Z AUTO 00000KT 10SM BKN060 30/14 A3015 RMK AO2 =
2015-08-29 14:15 METAR KOKV 291815Z AUTO 09003KT 10SM SCT070 SCT085 31/13 A3015 RMK AO2 =
2015-08-29 13:55 METAR KOKV 291755Z AUTO 02005KT 10SM BKN060 OVC070 30/14 A3015 RMK AO2 =
2015-08-29 13:15 METAR KOKV 291715Z AUTO 19003KT 10SM SCT050 SCT090 30/14 A3016 RMK AO2 =
2015-08-29 12:55 METAR KOKV 291655Z AUTO 00000KT 10SM SCT050 BKN090 29/15 A3017 RMK AO2 =
2015-08-29 12:35 METAR KOKV 291635Z AUTO 16003KT 10SM SCT050 30/15 A3018 RMK AO2 =
2015-08-29 12:15 METAR KOKV 291615Z AUTO 00000KT 10SM CLR 30/15 A3019 RMK AO2 =
2015-08-29 11:55 METAR KOKV 291555Z AUTO 00000KT 10SM CLR 29/15 A3020 RMK AO2 =
2015-08-29 11:35 METAR KOKV 291535Z AUTO 22004KT 10SM CLR 28/15 A3021 RMK AO2 =
2015-08-29 11:15 METAR KOKV 291515Z AUTO 25004KT 10SM CLR 28/15 A3021 RMK AO2 =
2015-08-29 10:55 METAR KOKV 291455Z AUTO 20008KT 10SM CLR 28/15 A3021 RMK AO2 =
2015-08-29 10:35 METAR KOKV 291435Z AUTO 21005KT 10SM CLR 27/15 A3021 RMK AO2 =
2015-08-29 10:15 METAR KOKV 291415Z AUTO 22006KT 10SM CLR 26/16 A3020 RMK AO2 =
2015-08-29 09:55 METAR KOKV 291355Z AUTO 21008KT 10SM CLR 25/16 A3021 RMK AO2 =
2015-08-29 09:35 METAR KOKV 291335Z AUTO 23007KT 10SM CLR 25/16 A3020 RMK AO2 =
2015-08-29 09:15 METAR KOKV 291315Z AUTO 23007KT 10SM CLR 23/16 A3020 RMK AO2 =
2015-08-29 08:55 METAR KOKV 291255Z AUTO 22005KT 10SM CLR 22/16 A3020 RMK AO2 =
2015-08-29 08:35 METAR KOKV 291235Z AUTO 22004KT 10SM CLR 21/16 A3021 RMK AO2 =
2015-08-29 08:15 METAR KOKV 291215Z AUTO 22004KT 10SM CLR 19/16 A3021 RMK AO2 =
2015-08-29 07:55 METAR KOKV 291155Z AUTO 23003KT 7SM CLR 18/16 A3021 RMK AO2 =
2015-08-29 07:35 METAR KOKV 291135Z AUTO 22003KT 7SM CLR 17/16 A3020 RMK AO2 =
2015-08-29 07:15 METAR KOKV 291115Z AUTO 26003KT 7SM CLR 16/15 A3020 RMK AO2 =
2015-08-29 06:55 METAR KOKV 291055Z AUTO 00000KT 7SM CLR 15/15 A3019 RMK AO2 =
2015-08-29 06:35 METAR KOKV 291035Z AUTO 00000KT 5SM BR CLR 15/15 A3019 RMK AO2 =
2015-08-29 06:15 METAR KOKV 291015Z AUTO 00000KT 4SM BR CLR 15/15 A3019 RMK AO2 =
2015-08-29 05:55 METAR KOKV 290955Z AUTO 00000KT 7SM CLR 15/15 A3019 RMK AO2 =
2015-08-29 05:35 METAR KOKV 290935Z AUTO 00000KT 7SM CLR 15/14 A3018 RMK AO2 =
2015-08-29 05:15 METAR KOKV 290915Z AUTO 00000KT 7SM CLR 15/14 A3018 RMK AO2 =
2015-08-29 04:55 METAR KOKV 290855Z AUTO 00000KT 10SM CLR 15/14 A3018 RMK AO2 =
2015-08-29 04:35 METAR KOKV 290835Z AUTO 00000KT 10SM CLR 16/15 A3017 RMK AO2 =
2015-08-29 04:15 METAR KOKV 290815Z AUTO 00000KT 10SM CLR 16/14 A3018 RMK AO2 =
2015-08-29 03:55 METAR KOKV 290755Z AUTO 00000KT 10SM CLR 16/15 A3018 RMK AO2 =

Support USWX by starting your Amazon purchase here.